Time;durP1;ratioP1;P1;durP2;ratioP2;P2;SDS_P1;SDS_P2;PMS_P1;PMS_P2;Temp;Humidity;BMP_temperature;BMP_pressure;BME280_temperature;BME280_humidity;BME280_pressure;Samples;Min_cycle;Max_cycle;Signal;HPM_P1;HPM_P2
2023/10/08 00:02:05;;;;;;;0.10;0.10;;;16.50;99.90;;;;;;5031521;28;20026;-77
2023/10/08 00:04:37;;;;;;;4.15;2.05;;;16.60;99.90;;;;;;5031092;28;20470;-77
2023/10/08 00:07:09;;;;;;;;;;;16.40;99.90;;;;;;5031692;28;20029;-79
2023/10/08 00:09:36;;;;;;;3.20;1.27;;;16.40;99.90;;;;;;5032844;28;19916;-77
2023/10/08 00:12:05;;;;;;;0.00;0.00;;;16.60;99.90;;;;;;5032372;28;20045;-78
2023/10/08 00:14:43;;;;;;;0.15;0.15;;;16.70;99.90;;;;;;5032625;28;20025;-77
2023/10/08 00:17:12;;;;;;;0.10;0.10;;;16.70;99.90;;;;;;5032477;28;20038;-78
2023/10/08 00:19:39;;;;;;;0.00;0.00;;;16.80;99.90;;;;;;5031144;28;20572;-78
2023/10/08 00:22:06;;;;;;;0.00;0.00;;;16.60;99.90;;;;;;5032299;28;20021;-78
2023/10/08 00:24:33;;;;;;;0.20;0.20;;;16.70;99.90;;;;;;5032634;28;20091;-78
2023/10/08 00:27:00;;;;;;;0.00;0.00;;;17.10;99.90;;;;;;5031375;28;20432;-78
2023/10/08 00:29:26;;;;;;;0.00;0.00;;;17.00;99.90;;;;;;5014895;28;20052;-77
2023/10/08 00:31:56;;;;;;;0.00;0.00;;;17.30;99.90;;;;;;5032060;28;20030;-78
2023/10/08 00:34:24;;;;;;;0.00;0.00;;;16.80;99.90;;;;;;5032355;28;20440;-78
2023/10/08 00:36:51;;;;;;;1.02;0.82;;;16.90;99.90;;;;;;5031075;28;20136;-78
2023/10/08 00:39:23;;;;;;;0.00;0.00;;;16.90;99.90;;;;;;5030967;28;20103;-77
2023/10/08 00:41:54;;;;;;;0.00;0.00;;;17.00;99.90;;;;;;5030891;28;20034;-77
2023/10/08 00:44:23;;;;;;;0.00;0.00;;;16.80;99.90;;;;;;5032252;28;20033;-78
2023/10/08 00:46:49;;;;;;;0.00;0.00;;;16.90;99.90;;;;;;5033066;28;20025;-77
2023/10/08 00:54:55;;;;;;;0.10;0.10;;;17.10;99.90;;;;;;5034586;28;20108;-77
2023/10/08 00:57:29;;;;;;;0.00;0.00;;;17.10;99.90;;;;;;5025267;28;20080;-78
2023/10/08 00:59:58;;;;;;;0.20;0.20;;;17.10;99.90;;;;;;5034782;28;20036;-77
2023/10/08 01:02:36;;;;;;;0.00;0.00;;;16.90;99.90;;;;;;5034361;28;20053;-78
2023/10/08 01:05:02;;;;;;;0.00;0.00;;;16.60;99.90;;;;;;5034514;28;20033;-79
2023/10/08 01:07:30;;;;;;;0.00;0.00;;;16.60;99.90;;;;;;5034430;28;20029;-78
2023/10/08 01:10:05;;;;;;;0.00;0.00;;;16.40;99.90;;;;;;5036080;28;20422;-77
2023/10/08 01:12:33;;;;;;;2.85;2.65;;;16.10;99.90;;;;;;5034370;28;20063;-79
2023/10/08 01:15:23;;;;;;;0.00;0.00;;;16.30;99.90;;;;;;5034422;28;20017;-77
2023/10/08 01:18:00;;;;;;;1.27;0.40;;;16.70;99.90;;;;;;5035350;28;20045;-77
2023/10/08 01:20:37;;;;;;;0.00;0.00;;;16.60;99.90;;;;;;5034272;28;20055;-78
2023/10/08 01:23:10;;;;;;;0.03;0.03;;;16.40;99.90;;;;;;5035430;28;20033;-77
2023/10/08 01:25:37;;;;;;;0.20;0.20;;;16.10;99.90;;;;;;5034099;28;20045;-78
2023/10/08 01:28:09;;;;;;;0.20;0.20;;;16.10;99.90;;;;;;5035398;28;20373;-77
2023/10/08 01:30:41;;;;;;;0.88;0.85;;;16.00;99.90;;;;;;5034832;28;20025;-77
2023/10/08 01:33:15;;;;;;;0.17;0.17;;;16.00;99.90;;;;;;5035220;28;20063;-77
2023/10/08 01:35:42;;;;;;;3.55;0.88;;;16.00;99.90;;;;;;5035345;28;20080;-77
2023/10/08 01:38:13;;;;;;;0.22;0.22;;;15.90;99.90;;;;;;5035142;28;20112;-77
2023/10/08 01:40:40;;;;;;;0.20;0.20;;;15.90;99.90;;;;;;5035145;28;20056;-77
2023/10/08 01:43:06;;;;;;;2.08;0.60;;;16.10;99.90;;;;;;5033912;28;20493;-77
2023/10/08 01:45:35;;;;;;;0.40;0.40;;;16.30;99.90;;;;;;5033416;28;20056;-77
2023/10/08 01:48:01;;;;;;;5.50;1.65;;;16.20;99.90;;;;;;5035162;28;20025;-77
2023/10/08 01:50:29;;;;;;;0.00;0.00;;;16.10;99.90;;;;;;5017192;28;20029;-78
2023/10/08 01:52:55;;;;;;;1.02;0.98;;;15.90;99.90;;;;;;5034836;28;20044;-77
2023/10/08 01:55:22;;;;;;;0.10;0.10;;;15.90;99.90;;;;;;5034751;28;20450;-77
2023/10/08 01:57:51;;;;;;;1.02;0.85;;;16.10;99.90;;;;;;5033133;28;20061;-77
2023/10/08 02:00:19;;;;;;;0.00;0.00;;;16.00;99.90;;;;;;5033166;28;20029;-77
2023/10/08 02:02:58;;;;;;;0.40;0.40;;;16.00;99.90;;;;;;5034842;28;20076;-77
2023/10/08 02:05:23;;;;;;;1.45;0.65;;;16.00;99.90;;;;;;5034456;28;20378;-77
2023/10/08 02:07:51;;;;;;;0.20;0.20;;;15.90;99.90;;;;;;5034883;28;20030;-77
2023/10/08 02:10:16;;;;;;;0.28;0.28;;;16.00;99.90;;;;;;5034530;28;20025;-78
2023/10/08 02:12:42;;;;;;;0.00;0.00;;;16.10;99.90;;;;;;5034238;28;20043;-78
2023/10/08 02:15:11;;;;;;;0.00;0.00;;;16.00;99.90;;;;;;5033103;28;20030;-78
2023/10/08 02:17:38;;;;;;;0.00;0.00;;;16.00;99.90;;;;;;5034291;28;20057;-77
2023/10/08 02:20:05;;;;;;;0.00;0.00;;;15.90;99.90;;;;;;5033435;28;20458;-77
2023/10/08 02:22:35;;;;;;;0.00;0.00;;;16.00;99.90;;;;;;5034451;28;20052;-78
2023/10/08 02:25:02;;;;;;;0.00;0.00;;;16.10;99.90;;;;;;5033020;28;20033;-78
2023/10/08 02:27:28;;;;;;;0.00;0.00;;;16.30;99.90;;;;;;5032967;28;20025;-78
2023/10/08 02:29:54;;;;;;;0.00;0.00;;;16.30;99.90;;;;;;5033947;28;20026;-78
2023/10/08 02:32:22;;;;;;;0.00;0.00;;;16.40;99.90;;;;;;5032901;28;20044;-78
2023/10/08 02:34:50;;;;;;;0.00;0.00;;;16.40;99.90;;;;;;5033941;28;20021;-78
2023/10/08 02:37:16;;;;;;;0.00;0.00;;;16.40;99.90;;;;;;5034256;28;20173;-78
2023/10/08 02:39:42;;;;;;;0.00;0.00;;;16.40;99.90;;;;;;5032832;28;20390;-78
2023/10/08 02:42:10;;;;;;;0.00;0.00;;;16.40;99.90;;;;;;5032681;28;20037;-78
2023/10/08 02:44:43;;;;;;;0.00;0.00;;;16.20;99.90;;;;;;5032481;28;20017;-78
2023/10/08 02:47:11;;;;;;;0.00;0.00;;;16.30;99.90;;;;;;5016230;28;20034;-78
2023/10/08 02:49:40;;;;;;;0.00;0.00;;;16.40;99.90;;;;;;5032770;28;20116;-78
2023/10/08 02:52:08;;;;;;;0.00;0.00;;;16.30;99.90;;;;;;5033597;28;20378;-79
2023/10/08 02:54:36;;;;;;;0.00;0.00;;;16.50;99.90;;;;;;5032683;28;20030;-77
2023/10/08 02:57:16;;;;;;;0.00;0.00;;;16.60;99.90;;;;;;5002981;28;20026;-78
2023/10/08 02:59:44;;;;;;;0.00;0.00;;;16.50;99.90;;;;;;5032477;28;20034;-78
2023/10/08 03:02:18;;;;;;;0.10;0.10;;;16.50;99.90;;;;;;5032179;28;20033;-79
2023/10/08 03:04:45;;;;;;;0.00;0.00;;;16.40;99.90;;;;;;5032318;28;20029;-78
2023/10/08 03:07:21;;;;;;;0.00;0.00;;;16.50;99.90;;;;;;5033650;28;20125;-79
2023/10/08 03:09:50;;;;;;;0.65;0.65;;;16.20;99.90;;;;;;5031666;28;20108;-78
2023/10/08 03:12:17;;;;;;;0.25;0.25;;;15.90;99.90;;;;;;5033118;28;20042;-78
2023/10/08 03:15:01;;;;;;;0.00;0.00;;;15.90;99.90;;;;;;5033360;28;20030;-77
2023/10/08 03:17:35;;;;;;;0.00;0.00;;;16.20;99.90;;;;;;5032045;28;20021;-78
2023/10/08 03:22:47;;;;;;;0.00;0.00;;;16.20;99.90;;;;;;5031743;28;20091;-78
2023/10/08 03:25:20;;;;;;;0.85;0.65;;;16.10;99.90;;;;;;5032238;28;20025;-78
2023/10/08 03:27:48;;;;;;;0.00;0.00;;;16.10;99.90;;;;;;5031415;28;20029;-78
2023/10/08 03:30:14;;;;;;;0.00;0.00;;;16.30;99.90;;;;;;5032318;28;20474;-78
2023/10/08 03:32:43;;;;;;;0.00;0.00;;;16.20;99.90;;;;;;5031431;28;20045;-79
2023/10/08 03:35:10;;;;;;;0.00;0.00;;;16.10;99.90;;;;;;5027885;28;20105;-79
2023/10/08 03:37:41;;;;;;;0.00;0.00;;;15.90;99.90;;;;;;5005579;28;20069;-78
2023/10/08 03:42:49;;;;;;;1.35;1.25;;;15.90;99.90;;;;;;5010580;28;20553;-78
2023/10/08 03:45:22;;;;;;;0.00;0.00;;;16.00;99.90;;;;;;5012963;28;20024;-78
2023/10/08 03:48:03;;;;;;;0.00;0.00;;;16.10;99.90;;;;;;5013188;28;20037;-79
2023/10/08 03:50:40;;;;;;;0.70;0.70;;;15.90;99.90;;;;;;5013073;28;20033;-79
2023/10/08 03:53:11;;;;;;;0.00;0.00;;;15.80;99.90;;;;;;5012812;28;20046;-80
2023/10/08 03:55:40;;;;;;;0.00;0.00;;;15.80;99.90;;;;;;5001109;28;20022;-81
2023/10/08 03:58:27;;;;;;;0.00;0.00;;;15.90;99.90;;;;;;5023106;28;20461;-78
2023/10/08 04:01:08;;;;;;;0.00;0.00;;;16.00;99.90;;;;;;5032521;28;20026;-78
2023/10/08 04:06:28;;;;;;;0.00;0.00;;;16.00;99.90;;;;;;5032659;28;20025;-78
2023/10/08 04:09:10;;;;;;;0.00;0.00;;;16.20;99.90;;;;;;5032257;28;20033;-78
2023/10/08 04:11:51;;;;;;;0.00;0.00;;;16.10;99.90;;;;;;5032516;28;20079;-78
2023/10/08 04:14:22;;;;;;;0.00;0.00;;;16.10;99.90;;;;;;5032748;28;20029;-78
2023/10/08 04:16:51;;;;;;;0.15;0.15;;;16.20;99.90;;;;;;5031218;28;20087;-78
2023/10/08 04:19:20;;;;;;;0.75;0.75;;;16.00;99.90;;;;;;5032184;28;20040;-78
2023/10/08 04:21:53;;;;;;;0.45;0.45;;;15.80;99.90;;;;;;5035084;28;20044;-79
2023/10/08 04:24:27;;;;;;;0.10;0.10;;;15.90;99.90;;;;;;5036300;28;20044;-78
2023/10/08 04:26:56;;;;;;;0.00;0.00;;;15.60;99.90;;;;;;5035466;28;20394;-78
2023/10/08 04:29:22;;;;;;;0.00;0.00;;;15.50;99.90;;;;;;5035066;28;20029;-78
2023/10/08 04:32:00;;;;;;;0.00;0.00;;;15.50;99.90;;;;;;5036255;28;20041;-78
2023/10/08 04:34:28;;;;;;;0.00;0.00;;;15.50;99.90;;;;;;5036183;28;20033;-78
2023/10/08 04:36:54;;;;;;;0.10;0.10;;;15.70;99.90;;;;;;5036409;28;20032;-78
2023/10/08 04:39:29;;;;;;;0.00;0.00;;;15.60;99.90;;;;;;5034899;28;20029;-78
2023/10/08 04:41:58;;;;;;;0.00;0.00;;;15.60;99.90;;;;;;5036101;28;20041;-78
2023/10/08 04:44:25;;;;;;;0.00;0.00;;;15.60;99.90;;;;;;5036161;28;20013;-78
2023/10/08 04:46:52;;;;;;;1.50;1.40;;;15.70;99.90;;;;;;5036015;28;20035;-78
2023/10/08 04:49:28;;;;;;;11.07;2.75;;;15.70;99.90;;;;;;5036355;28;20018;-78
2023/10/08 04:51:58;;;;;;;0.30;0.30;;;15.70;99.90;;;;;;5035904;28;20036;-78
2023/10/08 04:54:29;;;;;;;0.20;0.20;;;15.60;99.90;;;;;;5035975;28;20088;-78
2023/10/08 04:56:57;;;;;;;0.20;0.20;;;15.50;99.90;;;;;;5035896;28;20021;-78
2023/10/08 04:59:32;;;;;;;0.10;0.10;;;15.50;99.90;;;;;;5035980;28;20021;-78
2023/10/08 05:10:10;;;;;;;0.00;0.00;;;15.50;99.90;;;;;;5015488;28;20470;-79
2023/10/08 05:12:47;;;;;;;0.00;0.00;;;15.40;99.90;;;;;;5015745;28;20046;-78
2023/10/08 05:17:56;;;;;;;0.00;0.00;;;15.50;99.90;;;;;;5015856;28;20053;-78
2023/10/08 05:23:20;;;;;;;0.00;0.00;;;15.70;99.90;;;;;;5015371;28;20030;-79
2023/10/08 05:26:30;;;;;;;0.00;0.00;;;15.80;99.90;;;;;;5016687;28;20441;-78
2023/10/08 05:31:47;;;;;;;0.25;0.25;;;15.30;99.90;;;;;;5014378;28;20030;-79
2023/10/08 05:34:23;;;;;;;0.00;0.00;;;15.50;99.90;;;;;;5013608;28;20384;-79
2023/10/08 05:37:28;;;;;;;0.10;0.10;;;15.00;99.90;;;;;;5002177;28;20501;-80
2023/10/08 05:39:55;;;;;;;0.00;0.00;;;15.00;99.90;;;;;;5015113;28;20124;-78
2023/10/08 05:42:31;;;;;;;0.00;0.00;;;15.00;99.90;;;;;;5015412;28;20105;-79
2023/10/08 05:45:29;;;;;;;3.60;0.57;;;15.20;99.90;;;;;;5015155;28;20125;-79
2023/10/08 05:48:07;;;;;;;0.15;0.15;;;15.10;99.90;;;;;;5015125;28;20030;-78
2023/10/08 05:50:54;;;;;;;0.00;0.00;;;14.90;99.90;;;;;;5015254;28;20029;-78
2023/10/08 05:53:43;;;;;;;0.00;0.00;;;14.90;99.90;;;;;;5010892;28;20034;-79
2023/10/08 05:56:27;;;;;;;0.00;0.00;;;15.00;99.90;;;;;;5013014;28;20033;-80
2023/10/08 05:59:14;;;;;;;0.00;0.00;;;15.20;99.90;;;;;;5023764;28;21007;-82
2023/10/08 06:01:41;;;;;;;0.00;0.00;;;15.40;99.90;;;;;;5032552;28;20037;-80
2023/10/08 06:07:12;;;;;;;0.00;0.00;;;15.50;99.90;;;;;;5019986;28;20390;-79
2023/10/08 06:09:39;;;;;;;0.00;0.00;;;15.60;99.90;;;;;;5013972;28;20099;-79
2023/10/08 06:12:19;;;;;;;0.00;0.00;;;15.50;99.90;;;;;;5031167;28;20025;-79
2023/10/08 06:18:04;;;;;;;2.97;0.85;;;15.30;99.90;;;;;;5020376;28;20044;-78
2023/10/08 06:20:25;;;;;;;;;;;15.40;99.90;;;;;;5023609;28;20461;-79
2023/10/08 06:22:55;;;;;;;0.00;0.00;;;15.30;99.90;;;;;;5045084;28;19905;-79
2023/10/08 06:25:23;;;;;;;0.00;0.00;;;15.30;99.90;;;;;;5023641;28;20036;-78
2023/10/08 06:27:57;;;;;;;0.10;0.10;;;15.50;99.90;;;;;;5019237;28;20029;-79
2023/10/08 06:30:28;;;;;;;0.00;0.00;;;15.60;99.90;;;;;;5013308;28;20026;-78
2023/10/08 06:32:56;;;;;;;0.00;0.00;;;15.50;99.90;;;;;;5010397;28;20076;-79
2023/10/08 06:35:25;;;;;;;0.00;0.00;;;15.50;99.90;;;;;;5013488;28;20030;-78
2023/10/08 06:37:54;;;;;;;0.00;0.00;;;15.60;99.90;;;;;;5012488;28;20416;-79
2023/10/08 06:41:08;;;;;;;0.00;0.00;;;15.80;99.90;;;;;;5013002;28;20117;-78
2023/10/08 06:43:16;;;;;;;2.08;1.20;;;15.80;99.90;;;;;;4994407;28;20540;-78
2023/10/08 06:45:44;;;;;;;1.00;0.90;;;15.60;99.90;;;;;;5012676;28;20041;-78
2023/10/08 06:48:18;;;;;;;0.10;0.10;;;15.70;99.90;;;;;;5009668;28;20109;-79
2023/10/08 06:50:48;;;;;;;0.70;0.70;;;15.60;99.90;;;;;;5013220;28;20109;-79
2023/10/08 06:53:15;;;;;;;0.17;0.17;;;15.50;99.90;;;;;;5026258;28;20351;-79
2023/10/08 06:55:41;;;;;;;0.00;0.00;;;15.30;99.90;;;;;;5013354;28;20030;-78
2023/10/08 06:58:14;;;;;;;0.00;0.00;;;15.50;99.90;;;;;;5023737;28;20044;-79
2023/10/08 07:00:46;;;;;;;0.08;0.08;;;15.40;99.90;;;;;;5029474;28;20032;-79
2023/10/08 07:03:15;;;;;;;0.08;0.08;;;15.50;99.90;;;;;;5023835;28;20453;-79
2023/10/08 07:05:44;;;;;;;0.00;0.00;;;15.60;99.90;;;;;;5019029;28;20417;-79
2023/10/08 07:08:13;;;;;;;0.03;0.03;;;15.90;99.90;;;;;;5013855;28;20104;-78
2023/10/08 07:10:41;;;;;;;0.00;0.00;;;16.00;99.90;;;;;;5012875;28;20034;-79
2023/10/08 07:13:08;;;;;;;0.35;0.35;;;15.90;99.90;;;;;;5012881;28;20367;-79
2023/10/08 07:15:40;;;;;;;0.00;0.00;;;16.20;99.90;;;;;;5012727;28;20133;-79
2023/10/08 07:18:12;;;;;;;0.00;0.00;;;16.20;99.90;;;;;;5012357;28;20033;-79
2023/10/08 07:20:41;;;;;;;0.10;0.10;;;15.80;99.90;;;;;;5008589;28;20022;-78
2023/10/08 07:23:18;;;;;;;0.28;0.28;;;16.10;99.90;;;;;;5002798;28;20021;-78
2023/10/08 07:25:57;;;;;;;0.22;0.22;;;16.20;99.90;;;;;;5012763;28;20092;-79
2023/10/08 07:28:25;;;;;;;0.10;0.10;;;16.20;99.90;;;;;;5012483;28;20025;-79
2023/10/08 07:30:52;;;;;;;0.10;0.10;;;16.20;99.90;;;;;;5006613;28;20037;-79
2023/10/08 07:33:18;;;;;;;1.75;1.08;;;16.50;99.90;;;;;;5011727;28;20132;-78
2023/10/08 07:35:54;;;;;;;0.00;0.00;;;16.30;99.90;;;;;;5012741;28;20059;-78
2023/10/08 07:38:21;;;;;;;0.20;0.20;;;16.20;99.90;;;;;;5012117;28;20092;-78
2023/10/08 07:40:48;;;;;;;0.03;0.03;;;16.00;99.90;;;;;;5012777;28;20096;-78
2023/10/08 07:43:14;;;;;;;9.70;2.70;;;16.20;99.90;;;;;;5012006;28;20021;-78
2023/10/08 07:45:45;;;;;;;2.47;1.80;;;16.20;99.90;;;;;;5012560;28;20490;-78
2023/10/08 07:48:11;;;;;;;0.05;0.05;;;16.40;99.90;;;;;;5002597;28;20494;-78
2023/10/08 07:50:46;;;;;;;4.70;1.75;;;16.30;99.90;;;;;;5027135;28;20036;-77
2023/10/08 07:53:18;;;;;;;1.77;0.95;;;16.50;99.90;;;;;;5011439;28;20038;-77
2023/10/08 07:55:47;;;;;;;0.00;0.00;;;16.60;99.90;;;;;;5010646;28;20018;-78
2023/10/08 07:58:14;;;;;;;0.20;0.20;;;16.60;99.90;;;;;;5022648;28;20393;-79
2023/10/08 08:00:41;;;;;;;0.95;0.82;;;16.90;99.90;;;;;;5028573;28;20085;-79
2023/10/08 08:03:07;;;;;;;2.03;1.23;;;16.90;99.90;;;;;;5023569;28;20042;-80
2023/10/08 08:05:33;;;;;;;0.30;0.30;;;17.10;99.90;;;;;;5017636;28;20101;-79
2023/10/08 08:08:05;;;;;;;0.20;0.20;;;17.10;99.90;;;;;;5024286;28;20037;-79
2023/10/08 08:10:36;;;;;;;4.25;2.47;;;17.30;99.90;;;;;;5019047;28;20030;-78
2023/10/08 08:13:05;;;;;;;0.10;0.10;;;17.40;99.90;;;;;;5024000;28;20129;-78
2023/10/08 08:15:34;;;;;;;4.68;2.28;;;17.50;99.90;;;;;;5014665;28;20429;-78
2023/10/08 08:18:00;;;;;;;4.15;1.27;;;17.70;99.90;;;;;;5013798;28;20068;-79
2023/10/08 08:20:38;;;;;;;4.28;1.20;;;17.60;99.90;;;;;;5022066;28;21559;-79
2023/10/08 08:23:07;;;;;;;15.85;0.98;;;17.50;99.90;;;;;;5006141;28;20101;-78
2023/10/08 08:26:06;;;;;;;5.53;1.52;;;17.20;99.90;;;;;;5019799;28;20100;-78
2023/10/08 08:28:32;;;;;;;1.90;1.50;;;17.40;99.90;;;;;;5006269;28;20030;-77
2023/10/08 08:31:05;;;;;;;0.35;0.30;;;17.70;99.90;;;;;;5019404;28;20118;-75
2023/10/08 08:33:52;;;;;;;0.00;0.00;;;18.00;99.90;;;;;;5011668;28;20050;-78
2023/10/08 08:36:20;;;;;;;0.43;0.40;;;18.10;99.90;;;;;;5011848;28;20113;-78
2023/10/08 08:38:47;;;;;;;0.00;0.00;;;18.20;99.90;;;;;;5012008;28;20029;-78
2023/10/08 08:41:17;;;;;;;2.30;1.33;;;18.20;99.90;;;;;;5011996;28;20386;-77
2023/10/08 08:43:47;;;;;;;5.95;0.45;;;18.10;99.90;;;;;;5012817;28;20484;-80
2023/10/08 08:46:13;;;;;;;0.20;0.20;;;18.30;99.90;;;;;;5009590;28;20017;-80
2023/10/08 08:48:41;;;;;;;1.17;0.40;;;18.20;99.90;;;;;;5011737;28;20030;-80
2023/10/08 08:51:06;;;;;;;2.35;0.75;;;18.20;99.90;;;;;;5012022;28;20025;-80
2023/10/08 08:53:34;;;;;;;0.65;0.47;;;18.20;99.90;;;;;;5011338;28;20037;-80
2023/10/08 08:56:04;;;;;;;1.20;1.10;;;18.30;99.90;;;;;;5011915;28;20030;-80
2023/10/08 08:58:35;;;;;;;1.38;1.27;;;18.50;99.90;;;;;;5021012;28;20037;-79
2023/10/08 09:01:03;;;;;;;0.13;0.13;;;18.70;99.90;;;;;;5004777;28;20018;-80
2023/10/08 09:03:32;;;;;;;0.40;0.17;;;19.00;99.90;;;;;;5019820;28;20528;-81
2023/10/08 09:05:59;;;;;;;0.00;0.00;;;19.30;99.90;;;;;;5020771;28;20021;-80
2023/10/08 09:08:33;;;;;;;0.30;0.30;;;19.70;99.90;;;;;;5023061;28;20036;-79
2023/10/08 09:11:04;;;;;;;0.00;0.00;;;19.70;99.90;;;;;;5026571;28;20033;-81
2023/10/08 09:13:31;;;;;;;0.00;0.00;;;19.70;99.90;;;;;;5014982;28;20041;-80
2023/10/08 09:16:11;;;;;;;0.32;0.32;;;19.50;99.90;;;;;;5013554;28;20029;-80
2023/10/08 09:18:37;;;;;;;1.02;0.60;;;19.80;99.90;;;;;;5006467;28;20081;-81
2023/10/08 09:21:10;;;;;;;0.00;0.00;;;19.60;99.90;;;;;;5014808;28;20018;-82
2023/10/08 09:23:43;;;;;;;14.60;2.40;;;19.50;99.90;;;;;;5014519;28;20034;-80
2023/10/08 09:26:14;;;;;;;0.20;0.20;;;19.30;99.90;;;;;;5014782;28;20041;-80
2023/10/08 09:28:51;;;;;;;0.60;0.60;;;19.20;99.90;;;;;;5014256;28;20034;-80
2023/10/08 09:31:17;;;;;;;1.42;1.33;;;19.60;99.90;;;;;;5027328;28;20030;-80
2023/10/08 09:33:53;;;;;;;0.00;0.00;;;19.70;99.90;;;;;;5014757;28;20068;-76
2023/10/08 09:36:19;;;;;;;0.35;0.35;;;20.20;99.90;;;;;;5012914;28;20033;-78
2023/10/08 09:38:49;;;;;;;0.00;0.00;;;20.40;99.90;;;;;;5014466;28;20042;-77
2023/10/08 09:41:15;;;;;;;5.05;1.90;;;20.70;99.90;;;;;;5014142;28;20037;-77
2023/10/08 09:43:41;;;;;;;1.65;1.02;;;20.50;99.90;;;;;;5014503;28;20034;-78
2023/10/08 09:46:19;;;;;;;0.00;0.00;;;20.50;99.90;;;;;;5014458;28;20351;-77
2023/10/08 09:48:54;;;;;;;0.10;0.10;;;21.20;99.90;;;;;;5007456;28;20111;-79
2023/10/08 09:51:20;;;;;;;0.00;0.00;;;21.30;99.90;;;;;;5006991;28;20021;-80
2023/10/08 09:54:18;;;;;;;0.00;0.00;;;21.10;99.90;;;;;;5013764;28;20040;-79
2023/10/08 09:56:44;;;;;;;0.47;0.47;;;21.50;99.90;;;;;;5010992;28;20030;-79
2023/10/08 09:59:11;;;;;;;0.00;0.00;;;21.80;99.90;;;;;;5032769;28;20059;-79
2023/10/08 10:01:39;;;;;;;0.30;0.30;;;21.90;99.90;;;;;;5023265;28;20026;-79
2023/10/08 10:04:24;;;;;;;0.00;0.00;;;21.90;99.90;;;;;;5005685;28;20021;-79
2023/10/08 10:06:50;;;;;;;0.35;0.35;;;21.80;99.90;;;;;;5014091;28;20049;-79
2023/10/08 10:09:24;;;;;;;0.00;0.00;;;22.40;99.90;;;;;;5014687;28;20096;-80
2023/10/08 10:11:52;;;;;;;0.10;0.10;;;22.70;99.90;;;;;;5013076;28;20042;-79
2023/10/08 10:14:22;;;;;;;0.00;0.00;;;22.50;99.90;;;;;;5014706;28;20105;-79
2023/10/08 10:17:14;;;;;;;1.23;1.13;;;22.80;99.90;;;;;;5014850;28;20387;-79
2023/10/08 10:19:45;;;;;;;4.57;0.80;;;22.90;99.90;;;;;;5013161;28;20033;-79
2023/10/08 10:22:15;;;;;;;6.50;0.90;;;23.20;99.90;;;;;;5013268;28;20030;-79
2023/10/08 10:24:41;;;;;;;0.45;0.45;;;23.10;99.90;;;;;;5013456;28;20021;-79
2023/10/08 10:27:15;;;;;;;1.02;0.90;;;23.10;99.90;;;;;;5014431;28;20025;-79
2023/10/08 10:29:45;;;;;;;0.80;0.35;;;23.30;99.90;;;;;;5014374;28;20030;-78
2023/10/08 10:32:15;;;;;;;0.20;0.20;;;23.00;99.90;;;;;;5013205;28;20505;-78
2023/10/08 10:34:43;;;;;;;7.47;0.75;;;23.20;99.90;;;;;;5013745;28;20083;-79
2023/10/08 10:37:18;;;;;;;0.00;0.00;;;23.40;99.90;;;;;;5013250;28;20036;-79
2023/10/08 10:40:00;;;;;;;0.00;0.00;;;23.70;99.90;;;;;;5014153;28;20383;-78
2023/10/08 10:42:28;;;;;;;;;;;23.90;99.90;;;;;;5014382;28;20034;-78
2023/10/08 10:44:55;;;;;;;0.00;0.00;;;24.20;99.90;;;;;;5014205;28;19937;-78
2023/10/08 10:52:45;;;;;;;0.00;0.00;;;25.00;99.90;;;;;;5012722;28;20461;-79
2023/10/08 10:57:43;;;;;;;0.15;0.15;;;25.80;99.90;;;;;;5020650;28;20112;-79
2023/10/08 11:03:02;;;;;;;0.10;0.10;;;24.90;99.90;;;;;;5033906;28;20033;-79
2023/10/08 11:05:31;;;;;;;0.55;0.55;;;25.30;99.90;;;;;;5032523;28;20041;-79
2023/10/08 11:08:04;;;;;;;0.20;0.10;;;25.70;99.90;;;;;;5032492;28;20041;-79
2023/10/08 11:10:38;;;;;;;0.60;0.47;;;25.70;99.90;;;;;;5033645;28;20060;-78
2023/10/08 11:13:14;;;;;;;0.32;0.32;;;25.40;99.90;;;;;;5033526;28;20045;-78
2023/10/08 11:15:40;;;;;;;1.05;0.95;;;25.20;99.90;;;;;;5033451;28;20021;-79
2023/10/08 11:18:10;;;;;;;6.88;1.20;;;25.60;99.90;;;;;;5033713;28;20075;-78
2023/10/08 11:20:39;;;;;;;0.47;0.45;;;25.60;99.90;;;;;;5033688;28;20040;-79
2023/10/08 11:23:18;;;;;;;0.32;0.32;;;25.70;99.90;;;;;;5033343;28;20022;-79
2023/10/08 11:26:02;;;;;;;2.90;1.70;;;25.90;99.90;;;;;;5033347;28;20041;-79
2023/10/08 11:28:41;;;;;;;0.30;0.30;;;25.20;99.90;;;;;;5033386;28;20078;-78
2023/10/08 11:31:10;;;;;;;2.40;1.55;;;25.40;99.90;;;;;;5032432;28;20041;-78
2023/10/08 11:33:41;;;;;;;4.03;1.58;;;25.40;99.90;;;;;;5033068;28;20036;-78
2023/10/08 11:36:18;;;;;;;7.80;1.55;;;26.00;99.90;;;;;;5031963;28;20029;-78
2023/10/08 11:38:53;;;;;;;2.15;0.65;;;26.80;99.90;;;;;;5032930;28;20044;-79
2023/10/08 11:41:22;;;;;;;0.30;0.30;;;27.30;99.90;;;;;;5032798;28;20033;-79
2023/10/08 11:43:58;;;;;;;0.00;0.00;;;27.30;99.90;;;;;;5032897;28;20032;-79
2023/10/08 11:46:51;;;;;;;0.00;0.00;;;27.40;99.90;;;;;;5032980;28;20029;-78
2023/10/08 11:49:25;;;;;;;0.00;0.00;;;26.70;99.90;;;;;;5032697;28;20090;-79
2023/10/08 11:51:55;;;;;;;0.52;0.47;;;27.30;99.90;;;;;;5032464;28;20033;-79
2023/10/08 11:54:23;;;;;;;0.68;0.68;;;26.70;99.90;;;;;;5032841;28;20486;-79
2023/10/08 11:56:49;;;;;;;5.78;0.52;;;27.20;99.90;;;;;;5032696;28;20010;-79
2023/10/08 11:59:18;;;;;;;0.93;0.60;;;27.30;99.90;;;;;;5032628;28;20025;-79
2023/10/08 12:01:44;;;;;;;0.10;0.10;;;27.50;98.90;;;;;;5030852;28;20485;-79
2023/10/08 12:04:15;;;;;;;1.00;0.40;;;27.80;98.50;;;;;;5018145;28;20025;-79
2023/10/08 12:06:52;;;;;;;0.17;0.17;;;27.70;99.10;;;;;;5032732;28;20525;-79
2023/10/08 12:09:21;;;;;;;0.40;0.40;;;26.20;99.90;;;;;;5032179;28;20100;-78
2023/10/08 12:11:48;;;;;;;0.35;0.35;;;26.20;99.90;;;;;;5032542;28;20025;-78
2023/10/08 12:14:14;;;;;;;1.08;0.45;;;26.80;99.90;;;;;;5032510;28;20029;-78
2023/10/08 12:16:41;;;;;;;0.93;0.93;;;26.70;99.90;;;;;;5032497;28;20033;-79
2023/10/08 12:19:16;;;;;;;0.70;0.65;;;26.80;99.60;;;;;;5032366;28;20508;-79
2023/10/08 12:21:47;;;;;;;21.40;2.15;;;26.80;99.90;;;;;;5032524;28;20036;-78
2023/10/08 12:24:13;;;;;;;0.00;0.00;;;26.90;99.30;;;;;;5032417;28;20037;-78
2023/10/08 12:26:45;;;;;;;0.70;0.70;;;26.50;99.80;;;;;;5032457;28;20096;-79
2023/10/08 12:29:16;;;;;;;6.10;1.70;;;26.90;99.20;;;;;;5032503;28;20503;-78
2023/10/08 12:31:47;;;;;;;1.35;0.95;;;26.90;99.00;;;;;;5032434;28;20104;-78
2023/10/08 12:34:14;;;;;;;0.00;0.00;;;27.60;97.90;;;;;;5032474;28;20120;-78
2023/10/08 12:36:40;;;;;;;0.17;0.13;;;27.50;98.30;;;;;;5032416;28;20033;-78
2023/10/08 12:39:14;;;;;;;1.98;0.75;;;27.70;98.00;;;;;;5030883;28;20037;-78
2023/10/08 12:41:43;;;;;;;0.15;0.15;;;27.70;98.80;;;;;;5033151;28;20096;-78
2023/10/08 12:44:10;;;;;;;0.08;0.08;;;28.50;97.40;;;;;;5035348;28;20077;-78
2023/10/08 12:46:36;;;;;;;1.45;1.20;;;28.20;97.80;;;;;;5034840;28;20473;-78
2023/10/08 12:49:02;;;;;;;0.30;0.30;;;27.90;97.70;;;;;;5034958;28;20022;-78
2023/10/08 12:51:32;;;;;;;0.32;0.32;;;27.70;98.00;;;;;;5035887;28;20033;-79
2023/10/08 12:54:03;;;;;;;0.00;0.00;;;28.90;96.90;;;;;;5035933;28;20044;-79
2023/10/08 12:56:35;;;;;;;0.52;0.52;;;30.50;95.10;;;;;;5036020;28;20040;-78
2023/10/08 12:59:06;;;;;;;0.00;0.00;;;30.20;95.10;;;;;;5036091;28;20022;-79
2023/10/08 13:01:36;;;;;;;0.40;0.40;;;30.40;94.30;;;;;;5036128;28;20370;-79
2023/10/08 13:04:07;;;;;;;11.40;2.08;;;30.30;94.50;;;;;;5036002;28;20048;-79
2023/10/08 13:06:37;;;;;;;0.00;0.00;;;30.30;93.10;;;;;;5035689;28;20033;-79
2023/10/08 13:09:12;;;;;;;0.00;0.00;;;29.50;94.90;;;;;;5035471;28;20022;-78
2023/10/08 13:11:39;;;;;;;0.25;0.25;;;30.20;93.40;;;;;;5035921;28;20033;-79
2023/10/08 13:14:05;;;;;;;14.68;1.52;;;29.80;93.60;;;;;;5035593;28;20072;-78
2023/10/08 13:16:31;;;;;;;0.55;0.55;;;28.80;93.90;;;;;;5035933;28;20032;-78
2023/10/08 13:18:59;;;;;;;0.43;0.43;;;28.30;95.80;;;;;;5034339;28;20029;-78
2023/10/08 13:21:28;;;;;;;0.20;0.20;;;28.70;95.80;;;;;;5035468;28;20423;-78
2023/10/08 13:23:57;;;;;;;0.90;0.55;;;29.00;94.90;;;;;;5035613;28;20034;-78
2023/10/08 13:26:24;;;;;;;6.50;1.20;;;29.20;94.90;;;;;;5035665;28;20057;-78
2023/10/08 13:28:51;;;;;;;2.03;0.75;;;28.70;95.00;;;;;;5034328;28;20092;-78
2023/10/08 13:31:19;;;;;;;0.85;0.85;;;28.20;95.60;;;;;;5035358;28;20045;-78
2023/10/08 13:33:48;;;;;;;1.42;0.93;;;28.80;95.30;;;;;;5034251;28;20397;-78
2023/10/08 13:36:16;;;;;;;1.25;0.68;;;30.00;94.10;;;;;;5033993;28;20537;-78
2023/10/08 13:38:43;;;;;;;3.78;1.30;;;28.90;94.30;;;;;;5035321;28;20109;-78
2023/10/08 13:41:15;;;;;;;1.90;0.63;;;28.10;95.70;;;;;;5035282;28;20030;-78
2023/10/08 13:43:59;;;;;;;3.10;1.25;;;28.20;95.90;;;;;;5034148;28;20033;-78
2023/10/08 13:46:25;;;;;;;7.88;1.33;;;27.00;97.80;;;;;;5035000;28;20033;-78
2023/10/08 13:48:51;;;;;;;0.60;0.60;;;27.30;97.30;;;;;;5035110;28;20116;-78
2023/10/08 13:51:38;;;;;;;1.88;1.35;;;27.30;97.30;;;;;;5034694;28;20048;-78
2023/10/08 13:54:06;;;;;;;4.63;2.10;;;27.30;97.90;;;;;;5034394;28;20140;-78
2023/10/08 13:56:33;;;;;;;0.47;0.45;;;27.70;96.50;;;;;;5034988;28;20025;-78